createdAt,value
2018-10-01T00:01:56.330Z,98041.84
2018-10-01T00:04:26.048Z,98029.55
2018-10-01T00:06:55.653Z,98031.91
2018-10-01T00:09:25.261Z,98030.76
2018-10-01T00:11:54.868Z,98036.03
2018-10-01T00:14:24.509Z,98031.91
2018-10-01T00:16:53.936Z,98031.44
2018-10-01T00:19:28.788Z,98032.75
2018-10-01T00:22:03.433Z,98027.20
2018-10-01T00:24:33.139Z,98032.45
2018-10-01T00:27:02.708Z,98033.95
2018-10-01T00:29:32.357Z,98028.87
2018-10-01T00:32:01.965Z,98024.64
2018-10-01T00:34:31.440Z,98017.42
2018-10-01T00:37:01.071Z,98021.34
2018-10-01T00:39:30.579Z,98018.87
2018-10-01T00:42:01.308Z,98019.89
2018-10-01T00:44:31.020Z,98023.33
2018-10-01T00:47:00.726Z,98030.88
2018-10-01T00:49:30.333Z,98032.16
2018-10-01T00:51:59.944Z,98027.26
2018-10-01T00:54:29.426Z,98022.02
2018-10-01T00:56:59.019Z,98017.91
2018-10-01T00:59:28.657Z,98017.27
2018-10-01T01:01:58.365Z,98011.55
2018-10-01T01:04:28.042Z,98004.20
2018-10-01T01:06:57.682Z,98011.06
2018-10-01T01:09:27.190Z,98013.52
2018-10-01T01:11:56.791Z,98017.61
2018-10-01T01:14:26.397Z,98022.02
2018-10-01T01:16:55.823Z,98019.09
2018-10-01T01:19:26.364Z,98019.89
2018-10-01T01:21:56.039Z,98015.14
2018-10-01T01:24:25.645Z,98021.05
2018-10-01T01:26:55.357Z,98019.40
2018-10-01T01:29:25.063Z,98019.25
2018-10-01T01:31:54.670Z,98020.04
2018-10-01T01:34:24.585Z,98022.47
2018-10-01T01:36:54.189Z,98015.27
2018-10-01T01:39:23.797Z,98014.27
2018-10-01T01:41:53.404Z,98013.77
2018-10-01T01:44:23.111Z,98005.58
2018-10-01T01:46:52.615Z,98012.77
2018-10-01T01:49:22.222Z,98013.09
2018-10-01T01:51:51.727Z,98014.25
2018-10-01T01:54:21.437Z,98012.13
2018-10-01T01:56:50.908Z,98009.03
2018-10-01T01:59:20.532Z,98013.45
2018-10-01T02:01:50.051Z,98005.92
2018-10-01T02:04:19.512Z,98000.48
2018-10-01T02:06:49.206Z,98005.92
2018-10-01T02:09:18.870Z,98005.64
2018-10-01T02:11:48.582Z,98003.05
2018-10-01T02:14:18.186Z,98005.03
2018-10-01T02:16:47.618Z,97996.80
2018-10-01T02:19:17.195Z,97996.34
2018-10-01T02:21:46.804Z,97994.06
2018-10-01T02:24:16.274Z,97988.64
2018-10-01T02:26:45.911Z,97982.74
2018-10-01T02:29:15.471Z,97985.72
2018-10-01T02:31:45.126Z,97987.51
2018-10-01T02:34:14.833Z,97993.22
2018-10-01T02:36:44.449Z,97989.94
2018-10-01T02:39:14.801Z,97999.61
2018-10-01T02:41:44.474Z,97994.53
2018-10-01T02:44:13.980Z,97988.80
2018-10-01T02:46:43.490Z,97996.82
2018-10-01T02:49:12.985Z,98005.66
2018-10-01T02:51:47.815Z,98000.91
2018-10-01T02:54:22.746Z,98006.13
2018-10-01T02:56:52.314Z,97994.69
2018-10-01T02:59:21.959Z,97999.73
2018-10-01T03:01:51.669Z,97992.55
2018-10-01T03:04:21.224Z,97993.22
2018-10-01T03:06:50.778Z,98002.67
2018-10-01T03:09:20.387Z,97996.78
2018-10-01T03:11:50.299Z,97994.48
2018-10-01T03:14:19.906Z,97994.17
2018-10-01T03:16:49.325Z,97991.05
2018-10-01T03:19:18.810Z,97992.50
2018-10-01T03:21:48.421Z,97993.63
2018-10-01T03:24:18.024Z,97992.31
2018-10-01T03:26:47.425Z,98000.47
2018-10-01T03:29:17.083Z,98003.25
2018-10-01T03:31:46.778Z,98002.77
2018-10-01T03:34:16.352Z,98005.75
2018-10-01T03:36:45.852Z,98008.84
2018-10-01T03:39:15.468Z,98005.75
2018-10-01T03:41:45.172Z,98005.86
2018-10-01T03:44:14.775Z,98010.27
2018-10-01T03:46:44.405Z,98013.70
2018-10-01T03:49:13.825Z,98013.58
2018-10-01T03:51:43.270Z,98007.67
2018-10-01T03:54:12.702Z,98008.19
2018-10-01T03:56:42.296Z,98005.59
2018-10-01T03:59:11.901Z,98008.67
2018-10-01T04:01:41.399Z,98005.38
2018-10-01T04:04:11.115Z,98004.41
2018-10-01T04:06:40.694Z,98011.43
2018-10-01T04:09:10.843Z,98004.87
2018-10-01T04:11:40.279Z,98001.95
2018-10-01T04:14:09.952Z,98004.55
2018-10-01T04:16:39.559Z,98011.25
2018-10-01T04:19:09.164Z,98007.30
2018-10-01T04:21:38.641Z,98011.72
2018-10-01T04:24:08.178Z,98011.06
2018-10-01T04:26:37.679Z,98009.44
2018-10-01T04:29:07.652Z,98008.30
2018-10-01T04:31:37.139Z,98005.55
2018-10-01T04:34:06.804Z,98011.39
2018-10-01T04:36:36.233Z,98012.73
2018-10-01T04:39:09.849Z,98013.39
2018-10-01T04:41:39.927Z,98022.20
2018-10-01T04:44:31.347Z,98020.41
2018-10-01T04:47:00.948Z,98019.09
2018-10-01T04:49:30.441Z,98015.31
2018-10-01T04:51:59.842Z,98023.36
2018-10-01T04:54:29.292Z,98025.46
2018-10-01T04:56:58.863Z,98024.02
2018-10-01T04:59:28.413Z,98023.36
2018-10-01T05:01:57.973Z,98030.70
2018-10-01T05:04:27.554Z,98044.06
2018-10-01T05:06:56.964Z,98048.63
2018-10-01T05:09:26.444Z,98044.73
2018-10-01T05:11:55.870Z,98052.09
2018-10-01T05:14:25.495Z,98053.03
2018-10-01T05:16:54.999Z,98035.72
2018-10-01T05:19:24.708Z,98044.55
2018-10-01T05:21:54.317Z,98041.11
2018-10-01T05:24:23.921Z,98033.94
2018-10-01T05:26:53.529Z,98035.77
2018-10-01T05:29:24.008Z,98040.17
2018-10-01T05:31:53.766Z,98047.05
2018-10-01T05:34:23.275Z,98052.42
2018-10-01T05:36:52.696Z,98058.66
2018-10-01T05:39:22.148Z,98068.30
2018-10-01T05:41:51.819Z,98075.01
2018-10-01T05:44:21.490Z,98077.63
2018-10-01T05:46:51.164Z,98075.34
2018-10-01T05:49:20.673Z,98070.57
2018-10-01T05:51:50.310Z,98077.81
2018-10-01T05:54:19.916Z,98074.84
2018-10-01T05:56:49.426Z,98065.72
2018-10-01T05:59:19.028Z,98069.80
2018-10-01T06:01:48.839Z,98079.33
2018-10-01T06:04:19.674Z,98081.74
2018-10-01T06:06:49.282Z,98077.88
2018-10-01T06:09:18.991Z,98079.70
2018-10-01T06:11:48.603Z,98078.42
2018-10-01T06:14:18.060Z,98090.54
2018-10-01T06:16:47.707Z,98092.06
2018-10-01T06:19:17.315Z,98097.61
2018-10-01T06:21:46.722Z,98096.98
2018-10-01T06:24:16.321Z,98097.63
2018-10-01T06:26:45.786Z,98102.53
2018-10-01T06:29:15.333Z,98100.22
2018-10-01T06:31:45.669Z,98109.39
2018-10-01T06:34:15.161Z,98104.75
2018-10-01T06:36:44.596Z,98108.05
2018-10-01T06:39:14.234Z,98109.02
2018-10-01T06:41:43.792Z,98113.77
2018-10-01T06:44:13.481Z,98109.65
2018-10-01T06:46:42.858Z,98114.50
2018-10-01T06:49:12.591Z,98110.53
2018-10-01T06:51:42.505Z,98116.41
2018-10-01T06:54:12.112Z,98120.13
2018-10-01T06:56:41.821Z,98119.17
2018-10-01T06:59:11.683Z,98119.45
2018-10-01T07:01:41.168Z,98127.00
2018-10-01T07:04:10.644Z,98129.53
2018-10-01T07:06:40.165Z,98127.98
2018-10-01T07:09:10.979Z,98135.61
2018-10-01T07:11:40.928Z,98136.31
2018-10-01T07:14:10.400Z,98130.49
2018-10-01T07:16:40.007Z,98127.77
2018-10-01T07:19:09.513Z,98140.55
2018-10-01T07:21:39.248Z,98143.48
2018-10-01T07:24:08.826Z,98139.90
2018-10-01T07:26:38.336Z,98144.04
2018-10-01T07:29:08.037Z,98141.27
2018-10-01T07:31:37.504Z,98142.09
2018-10-01T07:34:07.045Z,98153.45
2018-10-01T07:36:36.717Z,98151.05
2018-10-01T07:39:08.355Z,98153.22
2018-10-01T07:41:37.822Z,98158.88
2018-10-01T07:44:07.936Z,98163.06
2018-10-01T07:46:38.254Z,98166.99
2018-10-01T07:49:08.545Z,98163.13
2018-10-01T07:51:38.182Z,98162.84
2018-10-01T07:54:08.264Z,98166.22
2018-10-01T07:56:37.912Z,98176.03
2018-10-01T07:59:07.821Z,98157.02
2018-10-01T08:01:37.428Z,98166.23
2018-10-01T08:04:07.139Z,98171.60
2018-10-01T08:06:36.847Z,98173.67
2018-10-01T08:09:08.955Z,98170.22
2018-10-01T08:11:38.430Z,98169.38
2018-10-01T08:14:08.181Z,98170.05
2018-10-01T08:16:37.832Z,98171.20
2018-10-01T08:19:07.439Z,98182.52
2018-10-01T08:21:36.906Z,98192.00
2018-10-01T08:24:06.653Z,98183.62
2018-10-01T08:26:36.115Z,98177.92
2018-10-01T08:29:05.813Z,98186.84
2018-10-01T08:31:35.370Z,98193.31
2018-10-01T08:34:04.885Z,98189.66
2018-10-01T08:36:34.425Z,98187.53
2018-10-01T08:39:04.344Z,98195.19
2018-10-01T08:41:33.801Z,98202.55
2018-10-01T08:44:03.547Z,98206.23
2018-10-01T08:46:33.216Z,98202.66
2018-10-01T08:49:07.336Z,98206.44
2018-10-01T08:51:42.430Z,98211.11
2018-10-01T08:54:15.429Z,98210.41
2018-10-01T08:56:44.952Z,98214.00
2018-10-01T08:59:14.660Z,98214.62
2018-10-01T09:01:44.009Z,98218.53
2018-10-01T09:04:13.588Z,98218.67
2018-10-01T09:06:43.302Z,98219.79
2018-10-01T09:09:13.445Z,98223.39
2018-10-01T09:11:43.003Z,98220.44
2018-10-01T09:14:12.777Z,98220.91
2018-10-01T09:16:42.521Z,98226.10
2018-10-01T09:19:12.232Z,98219.81
2018-10-01T09:21:42.107Z,98228.58
2018-10-01T09:24:12.010Z,98235.66
2018-10-01T09:26:41.668Z,98238.42
2018-10-01T09:29:11.509Z,98237.75
2018-10-01T09:31:41.185Z,98239.66
2018-10-01T09:34:10.894Z,98235.43
2018-10-01T09:36:40.369Z,98234.31
2018-10-01T09:39:10.959Z,98232.95
2018-10-01T09:41:41.190Z,98232.76
2018-10-01T09:44:11.124Z,98227.13
2018-10-01T09:46:41.283Z,98228.97
2018-10-01T09:49:11.207Z,98226.31
2018-10-01T09:51:40.939Z,98229.20
2018-10-01T09:54:10.521Z,98229.11
2018-10-01T09:56:40.177Z,98216.89
2018-10-01T09:59:09.711Z,98220.98
2018-10-01T10:01:39.333Z,98225.72
2018-10-01T10:04:08.978Z,98218.19
2018-10-01T10:06:38.552Z,98229.03
2018-10-01T10:09:10.882Z,98221.68
2018-10-01T10:11:40.765Z,98222.50
2018-10-01T10:14:10.275Z,98230.95
2018-10-01T10:16:40.000Z,98227.39
2018-10-01T10:19:09.313Z,98220.94
2018-10-01T10:21:38.780Z,98219.94
2018-10-01T10:24:08.361Z,98230.53
2018-10-01T10:26:38.060Z,98234.50
2018-10-01T10:29:07.773Z,98238.81
2018-10-01T10:31:37.377Z,98242.56
2018-10-01T10:34:07.217Z,98236.47
2018-10-01T10:36:36.696Z,98236.42
2018-10-01T10:39:09.609Z,98235.09
2018-10-01T10:41:39.623Z,98233.60
2018-10-01T10:44:09.221Z,98235.61
2018-10-01T10:46:38.807Z,98241.61
2018-10-01T10:49:08.409Z,98246.15
2018-10-01T10:51:37.998Z,98238.57
2018-10-01T10:54:07.732Z,98237.51
2018-10-01T10:56:37.479Z,98238.03
2018-10-01T10:59:07.042Z,98237.22
2018-10-01T11:01:36.750Z,98230.63
2018-10-01T11:04:06.562Z,98236.84
2018-10-01T11:06:36.270Z,98229.14
2018-10-01T11:09:08.436Z,98231.22
2018-10-01T11:11:38.657Z,98234.94
2018-10-01T11:14:08.754Z,98231.25
2018-10-01T11:16:38.489Z,98232.28
2018-10-01T11:19:08.311Z,98235.86
2018-10-01T11:21:37.935Z,98235.45
2018-10-01T11:24:07.905Z,98233.20
2018-10-01T11:26:37.730Z,98221.89
2018-10-01T11:29:07.806Z,98219.16
2018-10-01T11:31:37.573Z,98211.34
2018-10-01T11:34:07.473Z,98214.66
2018-10-01T11:36:37.105Z,98222.88
2018-10-01T11:39:10.407Z,98213.38
2018-10-01T11:41:40.141Z,98211.70
2018-10-01T11:44:09.789Z,98207.56
2018-10-01T11:46:39.630Z,98207.47
2018-10-01T11:49:09.373Z,98208.27
2018-10-01T11:51:39.074Z,98219.69
2018-10-01T11:54:08.752Z,98211.22
2018-10-01T11:56:38.249Z,98208.01
2018-10-01T11:59:07.903Z,98210.18
2018-10-01T12:01:37.522Z,98214.86
2018-10-01T12:04:07.318Z,98217.53
2018-10-01T12:06:36.965Z,98221.04
2018-10-01T12:09:09.946Z,98217.09
2018-10-01T12:11:39.606Z,98218.13
2018-10-01T12:14:10.093Z,98220.88
2018-10-01T12:16:39.829Z,98215.58
2018-10-01T12:19:10.081Z,98224.70
2018-10-01T12:21:39.805Z,98221.35
2018-10-01T12:24:09.448Z,98225.55
2018-10-01T12:26:39.145Z,98213.70
2018-10-01T12:29:09.205Z,98220.61
2018-10-01T12:31:41.223Z,98211.69
2018-10-01T12:34:10.732Z,98207.14
2018-10-01T12:36:40.436Z,98203.45
2018-10-01T12:39:10.790Z,98195.54
2018-10-01T12:41:40.474Z,98200.13
2018-10-01T12:44:10.179Z,98201.11
2018-10-01T12:46:39.788Z,98198.50
2018-10-01T12:49:09.393Z,98197.86
2018-10-01T12:51:39.185Z,98192.40
2018-10-01T12:54:08.913Z,98195.41
2018-10-01T12:56:38.726Z,98199.34
2018-10-01T12:59:08.441Z,98195.41
2018-10-01T13:01:38.045Z,98204.31
2018-10-01T13:04:07.647Z,98212.31
2018-10-01T13:06:37.308Z,98225.03
2018-10-01T13:09:10.224Z,98222.78
2018-10-01T13:11:40.053Z,98229.86
2018-10-01T13:14:09.763Z,98228.26
2018-10-01T13:16:39.680Z,98216.87
2018-10-01T13:19:09.165Z,98219.03
2018-10-01T13:21:38.728Z,98226.88
2018-10-01T13:24:08.396Z,98217.30
2018-10-01T13:26:37.896Z,98222.78
2018-10-01T13:29:07.511Z,98214.06
2018-10-01T13:31:36.952Z,98223.11
2018-10-01T13:34:06.424Z,98217.81
2018-10-01T13:36:36.200Z,98221.37
2018-10-01T13:39:08.364Z,98222.80
2018-10-01T13:41:38.200Z,98214.69
2018-10-01T13:44:07.801Z,98222.70
2018-10-01T13:46:37.316Z,98219.45
2018-10-01T13:49:07.001Z,98218.59
2018-10-01T13:51:36.724Z,98214.75
2018-10-01T13:54:06.659Z,98212.38
2018-10-01T13:56:36.347Z,98209.36
2018-10-01T13:59:06.055Z,98212.25
2018-10-01T14:01:35.576Z,98212.09
2018-10-01T14:04:05.269Z,98211.61
2018-10-01T14:06:34.676Z,98209.79
2018-10-01T14:09:05.432Z,98208.25
2018-10-01T14:11:35.013Z,98206.29
2018-10-01T14:14:04.784Z,98207.61
2018-10-01T14:16:34.152Z,98207.73
2018-10-01T14:19:03.907Z,98205.00
2018-10-01T14:21:33.541Z,98203.30
2018-10-01T14:24:03.354Z,98201.17
2018-10-01T14:26:32.988Z,98207.23
2018-10-01T14:29:02.504Z,98211.27
2018-10-01T14:31:32.070Z,98217.52
2018-10-01T14:34:01.778Z,98216.00
2018-10-01T14:36:31.461Z,98214.67
2018-10-01T14:39:01.003Z,98215.08
2018-10-01T14:41:30.465Z,98227.69
2018-10-01T14:44:00.101Z,98223.82
2018-10-01T14:46:29.708Z,98223.02
2018-10-01T14:48:59.221Z,98252.13
2018-10-01T14:51:28.802Z,98266.85
2018-10-01T14:53:58.563Z,98281.09
2018-10-01T14:56:28.140Z,98291.34
2018-10-01T14:58:57.743Z,98296.01
2018-10-01T15:01:27.347Z,98302.34
2018-10-01T15:03:57.058Z,98308.89
2018-10-01T15:06:26.541Z,98313.09
2018-10-01T15:08:56.168Z,98310.73
2018-10-01T15:11:25.982Z,98328.52
2018-10-01T15:13:55.586Z,98337.94
2018-10-01T15:16:25.242Z,98341.70
2018-10-01T15:18:54.902Z,98345.84
2018-10-01T15:21:24.409Z,98346.20
2018-10-01T15:23:53.953Z,98343.91
2018-10-01T15:26:23.377Z,98354.53
2018-10-01T15:28:53.027Z,98354.33
2018-10-01T15:31:22.629Z,98359.06
2018-10-01T15:33:52.234Z,98353.57
2018-10-01T15:36:21.850Z,98354.28
2018-10-01T15:38:51.447Z,98357.38
2018-10-01T15:41:20.980Z,98363.02
2018-10-01T15:43:50.551Z,98368.91
2018-10-01T15:46:20.168Z,98378.14
2018-10-01T15:48:49.670Z,98373.60
2018-10-01T15:51:19.378Z,98367.73
2018-10-01T15:53:48.984Z,98365.89
2018-10-01T15:56:18.597Z,98376.05
2018-10-01T15:58:48.361Z,98379.97
2018-10-01T16:01:17.907Z,98383.44
2018-10-01T16:03:47.677Z,98390.42
2018-10-01T16:06:17.232Z,98391.94
2018-10-01T16:08:46.820Z,98395.55
2018-10-01T16:11:16.441Z,98398.98
2018-10-01T16:13:46.252Z,98395.88
2018-10-01T16:16:15.960Z,98402.33
2018-10-01T16:18:45.364Z,98409.98
2018-10-01T16:21:14.890Z,98405.20
2018-10-01T16:23:44.474Z,98403.95
2018-10-01T16:26:14.098Z,98414.45
2018-10-01T16:28:43.896Z,98416.89
2018-10-01T16:31:13.290Z,98422.91
2018-10-01T16:33:42.847Z,98421.78
2018-10-01T16:36:12.502Z,98427.97
2018-10-01T16:38:42.620Z,98431.42
2018-10-01T16:41:12.227Z,98432.86
2018-10-01T16:43:41.834Z,98436.33
2018-10-01T16:46:11.440Z,98439.27
2018-10-01T16:48:41.149Z,98446.77
2018-10-01T16:51:10.964Z,98445.28
2018-10-01T16:53:40.567Z,98446.40
2018-10-01T16:56:10.112Z,98456.36
2018-10-01T16:58:39.502Z,98485.04
2018-10-01T17:01:09.146Z,98501.74
2018-10-01T17:03:38.687Z,98504.17
2018-10-01T17:06:08.295Z,98508.80
2018-10-01T17:08:37.800Z,98520.07
2018-10-01T17:11:07.260Z,98512.05
2018-10-01T17:13:36.718Z,98522.70
2018-10-01T17:16:06.317Z,98523.58
2018-10-01T17:18:36.021Z,98517.00
2018-10-01T17:21:05.421Z,98523.08
2018-10-01T17:23:34.839Z,98523.25
2018-10-01T17:26:04.635Z,98521.24
2018-10-01T17:28:34.394Z,98532.93
2018-10-01T17:31:04.062Z,98529.31
2018-10-01T17:33:33.761Z,98531.78
2018-10-01T17:36:03.472Z,98534.38
2018-10-01T17:38:33.033Z,98532.58
2018-10-01T17:41:02.685Z,98530.13
2018-10-01T17:43:32.292Z,98535.54
2018-10-01T17:46:02.205Z,98533.73
2018-10-01T17:48:32.016Z,98540.17
2018-10-01T17:51:01.533Z,98542.14
2018-10-01T17:53:31.229Z,98545.37
2018-10-01T17:56:01.165Z,98555.21
2018-10-01T17:58:30.955Z,98549.95
2018-10-01T18:01:00.765Z,98554.24
2018-10-01T18:03:30.376Z,98553.94
2018-10-01T18:06:00.569Z,98562.64
2018-10-01T18:08:30.693Z,98569.36
2018-10-01T18:11:01.209Z,98564.78
2018-10-01T18:13:30.877Z,98570.67
2018-10-01T18:16:00.385Z,98563.77
2018-10-01T18:18:30.164Z,98561.82
2018-10-01T18:20:59.876Z,98565.12
2018-10-01T18:23:29.490Z,98560.50
2018-10-01T18:25:59.391Z,98567.41
2018-10-01T18:28:29.241Z,98568.06
2018-10-01T18:30:58.810Z,98563.80
2018-10-01T18:33:28.324Z,98563.97
2018-10-01T18:35:58.195Z,98577.84
2018-10-01T18:38:28.462Z,98576.16
2018-10-01T18:40:58.071Z,98583.22
2018-10-01T18:43:28.005Z,98580.30
2018-10-01T18:45:57.681Z,98589.80
2018-10-01T18:48:27.417Z,98593.57
2018-10-01T18:50:56.814Z,98593.95
2018-10-01T18:53:26.242Z,98597.54
2018-10-01T18:55:55.901Z,98597.96
2018-10-01T18:58:25.510Z,98598.13
2018-10-01T19:00:55.113Z,98594.91
2018-10-01T19:03:24.983Z,98601.95
2018-10-01T19:05:54.693Z,98607.16
2018-10-01T19:08:24.245Z,98610.45
2018-10-01T19:10:53.641Z,98607.36
2018-10-01T19:13:23.249Z,98608.31
2018-10-01T19:15:53.878Z,98620.14
2018-10-01T19:18:23.450Z,98629.02
2018-10-01T19:20:53.123Z,98628.35
2018-10-01T19:23:22.699Z,98632.34
2018-10-01T19:25:52.437Z,98638.38
2018-10-01T19:28:22.121Z,98638.16
2018-10-01T19:30:51.723Z,98644.44
2018-10-01T19:33:21.193Z,98641.36
2018-10-01T19:35:50.714Z,98641.84
2018-10-01T19:38:20.445Z,98641.17
2018-10-01T19:40:49.869Z,98647.33
2018-10-01T19:43:19.403Z,98648.64
2018-10-01T19:45:48.927Z,98648.70
2018-10-01T19:48:19.481Z,98652.09
2018-10-01T19:50:49.106Z,98652.48
2018-10-01T19:53:18.737Z,98657.70
2018-10-01T19:55:48.509Z,98649.78
2018-10-01T19:58:18.079Z,98652.09
2018-10-01T20:00:47.695Z,98657.75
2018-10-01T20:03:17.172Z,98651.27
2018-10-01T20:05:46.651Z,98654.66
2018-10-01T20:08:16.238Z,98655.05
2018-10-01T20:10:45.993Z,98667.09
2018-10-01T20:13:15.857Z,98666.99
2018-10-01T20:15:45.340Z,98660.66
2018-10-01T20:18:15.171Z,98662.19
2018-10-01T20:20:45.910Z,98658.48
2018-10-01T20:23:15.311Z,98660.27
2018-10-01T20:25:44.836Z,98663.58
2018-10-01T20:28:14.507Z,98662.09
2018-10-01T20:30:43.976Z,98665.42
2018-10-01T20:33:13.629Z,98664.39
2018-10-01T20:35:43.166Z,98671.81
2018-10-01T20:38:12.605Z,98671.33
2018-10-01T20:40:42.276Z,98672.02
2018-10-01T20:43:11.954Z,98672.86
2018-10-01T20:45:41.679Z,98675.61
2018-10-01T20:48:11.354Z,98685.38
2018-10-01T20:50:41.130Z,98679.13
2018-10-01T20:53:10.756Z,98682.37
2018-10-01T20:55:40.239Z,98687.72
2018-10-01T20:58:11.457Z,98684.03
2018-10-01T21:00:41.317Z,98682.20
2018-10-01T21:03:12.617Z,98682.06
2018-10-01T21:05:42.873Z,98656.88
2018-10-01T21:08:14.337Z,98685.72
2018-10-01T21:10:44.180Z,98689.62
2018-10-01T21:13:13.786Z,98687.23
2018-10-01T21:15:43.439Z,98692.86
2018-10-01T21:18:12.937Z,98690.75
2018-10-01T21:20:42.503Z,98692.00
2018-10-01T21:23:11.886Z,98696.92
2018-10-01T21:25:41.379Z,98694.53
2018-10-01T21:28:10.822Z,98698.52
2018-10-01T21:30:40.522Z,98697.80
2018-10-01T21:33:10.032Z,98706.80
2018-10-01T21:35:39.529Z,98702.35
2018-10-01T21:38:09.013Z,98699.81
2018-10-01T21:40:38.464Z,98696.78
2018-10-01T21:43:07.893Z,98703.92
2018-10-01T21:45:37.321Z,98704.58
2018-10-01T21:48:07.459Z,98697.84
2018-10-01T21:50:37.067Z,98709.73
2018-10-01T21:53:06.531Z,98710.86
2018-10-01T21:55:36.018Z,98708.45
2018-10-01T21:58:05.578Z,98710.62
2018-10-01T22:00:40.715Z,98712.34
2018-10-01T22:03:10.323Z,98708.20
2018-10-01T22:05:40.030Z,98708.45
2018-10-01T22:08:09.697Z,98705.95
2018-10-01T22:10:39.180Z,98704.08
2018-10-01T22:13:08.572Z,98703.34
2018-10-01T22:15:43.171Z,98703.64
2018-10-01T22:18:12.908Z,98702.58
2018-10-01T22:20:42.564Z,98702.81
2018-10-01T22:23:12.148Z,98703.78
2018-10-01T22:25:41.596Z,98705.23
2018-10-01T22:28:11.823Z,98711.84
2018-10-01T22:30:42.139Z,98712.72
2018-10-01T22:33:12.152Z,98712.16
2018-10-01T22:35:41.580Z,98718.06
2018-10-01T22:38:11.001Z,98711.88
2018-10-01T22:40:40.665Z,98711.55
2018-10-01T22:43:10.329Z,98709.84
2018-10-01T22:45:39.725Z,98712.70
2018-10-01T22:48:09.281Z,98719.14
2018-10-01T22:50:38.889Z,98708.45
2018-10-01T22:53:08.322Z,98712.10
2018-10-01T22:55:38.033Z,98711.93
2018-10-01T22:58:07.437Z,98706.38
2018-10-01T23:00:36.876Z,98708.85
2018-10-01T23:03:06.513Z,98701.75
2018-10-01T23:05:35.935Z,98712.37
2018-10-01T23:08:05.621Z,98708.73
2018-10-01T23:10:35.064Z,98710.84
2018-10-01T23:13:04.628Z,98714.95
2018-10-01T23:15:34.384Z,98712.05
2018-10-01T23:18:03.905Z,98716.80
2018-10-01T23:20:33.348Z,98714.98
2018-10-01T23:23:02.726Z,98717.55
2018-10-01T23:25:32.355Z,98723.42
2018-10-01T23:28:02.270Z,98721.37
2018-10-01T23:30:31.824Z,98729.84
2018-10-01T23:33:01.540Z,98724.39
2018-10-01T23:35:31.088Z,98729.13
2018-10-01T23:38:00.512Z,98732.20
2018-10-01T23:40:30.105Z,98726.67
2018-10-01T23:42:59.600Z,98725.63
2018-10-01T23:45:29.105Z,98733.00
2018-10-01T23:47:58.614Z,98731.98
2018-10-01T23:50:28.044Z,98729.84
2018-10-01T23:52:57.667Z,98725.70
2018-10-01T23:55:27.329Z,98726.10
2018-10-01T23:57:56.848Z,98728.98
